KVRB/VRB METAR and TAF weather

Enter ICAO airport designator
Station Type Date Time Source
KVRB METAR 2019/06/17 11:53 UTC NOAA

KVRB 171153Z 13008KT 10SM FEW041 SCT095 BKN120 26/22 A3006 RMK AO2 SLP179 70005 T02610222 10261 20250 53015


Station Type Date Time Source
KVRB Decoded METAR 2019/06/17 11:53 UTC NOAA

VERO BEACH MUNICIPAL AIRPORT , FL, United States (KVRB) 27-39N 080-25W 10M
Jun 17, 2019 - 07:53 AM EDT / 2019.06.17 1153 UTC
Wind: from the SE (130 degrees) at 9 MPH (8 KT):0
Visibility: 10 mile(s):0
Sky conditions: mostly cloudy
Temperature: 79.0 F (26.1 C)
Dew Point: 72.0 F (22.2 C)
Relative Humidity: 79%
Pressure (altimeter): 30.06 in. Hg (1017 hPa)
Pressure tendency: 0.04 inches (1.5 hPa) higher than three hours ago
ob: KVRB 171153Z 13008KT 10SM FEW041 SCT095 BKN120 26/22 A3006 RMK AO2 SLP179 70005 T02610222 10261 20250 53015
cycle: 12

Station Type Date Time Source
KVRB TAF 2019/06/17 12:24 UTC NOAA

TAF KVRB 171122Z 1712/1812 13009KT P6SM VCSH FEW025 SCT050 BKN150
TEMPO 1712/1714 18014G24KT 2SM +SHRA BKN020
FM171400 14015G20KT P6SM VCSH FEW035 BKN100
TEMPO 1715/1718 3SM TSRA BKN030CB
FM180000 16007KT P6SM SCT025 BKN100

Example: see airport list